Kellogg, Minnesota
Current Conditions -  °F | °C
As of 9:14 AM on Monday 24 Nov 2014 (Local Time) from KONA Reporting Station
Light Snow Light Snow  
Wind Chill: 18°   Ceiling: 1000
Heat Index: 30°   Visibility: 1mi
Dew Point: 28°   Wind: 18mph
Humidity: 93%   Direction: 300°WNW
Pressure: 29.31"   Gusts: 25mph
Location:  44.31°N, 92°W
Report Text: KONA 241514Z AUTO 30016G22KT 1SM -SN OVC010 M01/M02 A2931 RMK AO2
Loading
Personal Weather Stations






























Interactive Weather Map New forecast layout! Learn more

10-Day Weather Forecast

Advertisements
Track Severe Weather on mobile